Time;durP1;ratioP1;P1;durP2;ratioP2;P2;SDS_P1;SDS_P2;PMS_P1;PMS_P2;Temp;Humidity;BMP_temperature;BMP_pressure;BME280_temperature;BME280_humidity;BME280_pressure;Samples;Min_cycle;Max_cycle;Signal;HPM_P1;HPM_P2
2023/01/27 00:01:03;;;;;;;24.10;11.97;;;;;;;-3.46;100.00;96393.84;5006182;28;20434;-74
2023/01/27 00:03:29;;;;;;;16.50;9.60;;;;;;;-3.43;100.00;96388.19;5015174;28;20437;-74
2023/01/27 00:05:59;;;;;;;15.20;10.67;;;;;;;-3.58;100.00;96372.47;5039094;28;20425;-74
2023/01/27 00:08:28;;;;;;;17.37;11.77;;;;;;;-3.27;100.00;96413.25;5045735;28;20896;-74
2023/01/27 00:13:44;;;;;;;19.43;10.90;;;;;;;-3.37;100.00;96396.81;5032059;28;20456;-74
2023/01/27 00:16:11;;;;;;;18.30;10.80;;;;;;;-3.35;100.00;96381.84;5039836;28;20429;-74
2023/01/27 00:18:37;;;;;;;16.57;11.53;;;;;;;-3.73;100.00;96354.94;5076713;28;20434;-75
2023/01/27 00:26:35;;;;;;;15.63;9.47;;;;;;;-3.35;100.00;96402.50;5070253;28;20460;-74
2023/01/27 00:29:01;;;;;;;16.80;9.97;;;;;;;-3.51;100.00;96378.25;5081931;28;20435;-74
2023/01/27 00:34:23;;;;;;;20.47;11.10;;;;;;;-3.50;100.00;96387.56;5080227;28;21483;-74
2023/01/27 00:36:49;;;;;;;20.90;11.80;;;;;;;-3.67;100.00;96351.41;5068273;28;20554;-74
2023/01/27 00:39:16;;;;;;;20.10;13.30;;;;;;;-3.43;100.00;96392.59;5058730;28;21217;-74
2023/01/27 00:41:43;;;;;;;16.73;10.63;;;;;;;-3.38;100.00;96406.34;5080053;28;20436;-74
2023/01/27 00:44:11;;;;;;;20.83;12.17;;;;;;;-3.69;100.00;96368.16;5083238;28;20526;-74
2023/01/27 00:46:40;;;;;;;22.50;11.97;;;;;;;-3.47;100.00;96399.22;5069099;28;20464;-73
2023/01/27 00:49:09;;;;;;;21.13;12.73;;;;;;;-3.58;100.00;96373.25;5043027;28;20493;-74
2023/01/27 00:51:36;;;;;;;21.30;12.63;;;;;;;-3.64;100.00;96368.22;5067973;28;20484;-74
2023/01/27 00:54:03;;;;;;;19.83;10.43;;;;;;;-3.66;100.00;96368.47;5080343;28;20424;-74
2023/01/27 00:56:30;;;;;;;20.03;13.10;;;;;;;-3.35;100.00;96410.28;5073517;28;20444;-74
2023/01/27 00:58:57;;;;;;;17.27;12.90;;;;;;;-3.54;100.00;96380.53;5074576;28;20431;-74
2023/01/27 01:01:23;;;;;;;12.93;9.60;;;;;;;-3.50;100.00;96381.63;5077381;28;20478;-74
2023/01/27 01:03:51;;;;;;;18.63;10.00;;;;;;;-3.63;100.00;96388.66;5062466;28;20961;-74
2023/01/27 01:06:18;;;;;;;17.23;10.60;;;;;;;-3.65;100.00;96375.19;5061798;28;20486;-74
2023/01/27 01:08:47;;;;;;;19.13;11.40;;;;;;;-3.72;100.00;96374.59;5066381;28;20803;-74
2023/01/27 01:11:16;;;;;;;15.33;10.80;;;;;;;-3.39;100.00;96430.63;5084018;28;20818;-74
2023/01/27 01:13:44;;;;;;;17.43;11.70;;;;;;;-3.62;100.00;96385.06;5064156;28;20427;-74
2023/01/27 01:16:14;;;;;;;18.13;11.47;;;;;;;-3.28;100.00;96434.94;5055385;28;20444;-74
2023/01/27 01:18:42;;;;;;;18.67;11.60;;;;;;;-3.28;100.00;96424.63;5070374;28;20416;-74
2023/01/27 01:21:09;;;;;;;18.30;11.43;;;;;;;-3.61;100.00;96396.94;5082514;28;20463;-74
2023/01/27 01:23:44;;;;;;;20.03;12.40;;;;;;;-3.28;100.00;96440.13;5071372;28;20995;-74
2023/01/27 01:26:16;;;;;;;19.20;11.93;;;;;;;-3.49;100.00;96427.88;5074926;28;20474;-74
2023/01/27 01:28:44;;;;;;;17.07;11.33;;;;;;;-3.35;100.00;96436.91;5056796;28;20445;-74
2023/01/27 01:31:14;;;;;;;21.50;10.93;;;;;;;-3.38;100.00;96427.03;5072856;28;20965;-74
2023/01/27 01:33:41;;;;;;;18.10;11.33;;;;;;;-3.65;100.00;96403.63;5071168;28;20484;-74
2023/01/27 01:36:15;;;;;;;20.33;10.67;;;;;;;-3.44;100.00;96429.78;5066149;28;20441;-74
2023/01/27 01:38:42;;;;;;;21.07;10.80;;;;;;;-3.50;100.00;96415.19;5076716;28;20467;-74
2023/01/27 01:41:13;;;;;;;19.37;11.43;;;;;;;-3.51;100.00;96431.72;5073516;28;20456;-74
2023/01/27 01:43:39;;;;;;;17.90;11.50;;;;;;;-3.80;100.00;96379.34;5085650;28;20441;-74
2023/01/27 01:46:09;;;;;;;16.40;10.30;;;;;;;-3.40;100.00;96434.25;5087360;28;20467;-74
2023/01/27 01:48:47;;;;;;;22.10;13.23;;;;;;;-3.60;100.00;96398.53;5056039;28;20561;-74
2023/01/27 01:51:19;;;;;;;17.80;10.80;;;;;;;-3.34;100.00;96437.69;5057338;28;20444;-73
2023/01/27 01:54:08;;;;;;;15.40;9.53;;;;;;;-3.40;100.00;96429.06;5083155;28;20484;-73
2023/01/27 01:56:48;;;;;;;15.30;9.23;;;;;;;-3.34;100.00;96433.31;5077436;28;20491;-74
2023/01/27 01:59:21;;;;;;;16.83;10.03;;;;;;;-3.47;100.00;96394.88;5060275;28;20436;-74
2023/01/27 02:01:49;;;;;;;18.90;10.50;;;;;;;-3.39;100.00;96406.59;5066751;28;20803;-74
2023/01/27 02:04:22;;;;;;;16.33;10.83;;;;;;;-3.34;100.00;96417.00;5061329;28;20475;-74
2023/01/27 02:06:57;;;;;;;21.73;11.10;;;;;;;-3.48;100.00;96405.41;5085631;28;20444;-74
2023/01/27 02:09:26;;;;;;;17.23;10.97;;;;;;;-3.57;100.00;96394.69;5084694;28;20453;-74
2023/01/27 02:11:53;;;;;;;19.07;11.50;;;;;;;-3.70;100.00;96382.09;5061711;28;20439;-73
2023/01/27 02:14:19;;;;;;;14.80;10.73;;;;;;;-3.33;100.00;96432.31;5060141;28;20860;-74
2023/01/27 02:16:46;;;;;;;15.70;10.80;;;;;;;-3.47;100.00;96410.38;5083888;28;20930;-74
2023/01/27 02:19:31;;;;;;;16.10;10.57;;;;;;;-3.35;100.00;96423.97;5084128;28;20796;-74
2023/01/27 02:22:00;;;;;;;18.43;10.80;;;;;;;-3.34;100.00;96442.84;5051628;28;20443;-74
2023/01/27 02:24:36;;;;;;;20.00;11.60;;;;;;;-3.60;100.00;96388.22;5078074;28;20937;-74
2023/01/27 02:27:03;;;;;;;20.00;10.57;;;;;;;-3.54;100.00;96393.44;5081678;28;20495;-74
2023/01/27 02:29:30;;;;;;;16.60;10.67;;;;;;;-3.76;100.00;96365.72;5084881;28;20474;-74
2023/01/27 02:31:57;;;;;;;18.13;11.00;;;;;;;-3.35;100.00;96430.94;5051355;28;20986;-74
2023/01/27 02:34:32;;;;;;;16.13;10.60;;;;;;;-3.54;100.00;96396.81;5060800;28;20484;-74
2023/01/27 02:37:04;;;;;;;15.17;10.50;;;;;;;-3.67;100.00;96386.78;5063021;28;20444;-74
2023/01/27 02:39:41;;;;;;;14.93;9.00;;;;;;;-3.80;100.00;96371.59;5054777;28;20471;-74
2023/01/27 02:42:11;;;;;;;17.70;10.70;;;;;;;-3.45;100.00;96413.50;5072805;28;20416;-74
2023/01/27 02:44:38;;;;;;;18.90;10.67;;;;;;;-3.74;100.00;96383.56;5084745;28;20974;-74
2023/01/27 02:47:05;;;;;;;17.40;10.80;;;;;;;-3.66;100.00;96380.59;5070908;28;20535;-74
2023/01/27 02:49:32;;;;;;;17.30;10.57;;;;;;;-3.60;100.00;96401.13;5062541;28;20470;-74
2023/01/27 02:52:00;;;;;;;18.87;10.17;;;;;;;-3.54;100.00;96393.44;5061362;28;20448;-74
2023/01/27 02:54:29;;;;;;;18.47;10.73;;;;;;;-3.52;100.00;96392.19;5065778;28;20855;-74
2023/01/27 02:56:56;;;;;;;17.93;11.40;;;;;;;-3.32;100.00;96422.75;5066551;28;20459;-74
2023/01/27 02:59:25;;;;;;;18.93;11.70;;;;;;;-3.69;100.00;96356.03;5080401;28;20448;-74
2023/01/27 03:01:51;;;;;;;15.47;11.87;;;;;;;-3.64;100.00;96376.75;5078758;28;20925;-74
2023/01/27 03:04:18;;;;;;;19.33;10.60;;;;;;;-3.51;100.00;96401.50;5070680;28;20444;-74
2023/01/27 03:06:45;;;;;;;16.47;10.90;;;;;;;-3.91;100.00;96319.78;5067471;28;20546;-74
2023/01/27 03:09:11;;;;;;;17.17;11.63;;;;;;;-3.35;100.00;96405.09;5070708;28;20862;-74
2023/01/27 03:19:55;;;;;;;19.80;11.30;;;;;;;-3.71;100.00;96370.97;5084256;28;20459;-74
2023/01/27 03:22:25;;;;;;;21.23;10.93;;;;;;;-3.53;100.00;96397.59;5099187;28;20432;-75
2023/01/27 03:24:52;;;;;;;19.10;11.37;;;;;;;-3.47;100.00;96381.13;5081460;28;20444;-76
2023/01/27 03:27:19;;;;;;;16.23;11.10;;;;;;;-3.62;100.00;96366.19;5109727;28;20459;-76
2023/01/27 03:30:05;;;;;;;17.60;9.77;;;;;;;-3.49;100.00;96390.94;5075196;28;20474;-74
2023/01/27 03:32:33;;;;;;;16.93;10.40;;;;;;;-3.71;100.00;96357.28;5065712;28;20443;-74
2023/01/27 03:35:33;;;;;;;18.23;12.40;;;;;;;-3.42;100.00;96420.00;5051299;28;20532;-74
2023/01/27 03:46:18;;;;;;;19.53;10.63;;;;;;;-3.45;100.00;96392.81;5069733;28;20877;-74
2023/01/27 03:49:08;;;;;;;15.97;9.70;;;;;;;-3.40;100.00;96410.97;5083687;28;20441;-74
2023/01/27 03:51:34;;;;;;;18.77;11.17;;;;;;;-3.49;100.00;96391.72;5072534;28;20815;-74
2023/01/27 03:54:01;;;;;;;18.50;10.80;;;;;;;-3.68;100.00;96359.38;5052152;28;20504;-74
2023/01/27 03:56:28;;;;;;;14.77;10.80;;;;;;;-3.37;100.00;96394.22;5065644;28;20509;-74
2023/01/27 03:58:54;;;;;;;17.97;11.70;;;;;;;-3.61;100.00;96376.28;5089120;28;20423;-74
2023/01/27 04:01:23;;;;;;;15.90;9.40;;;;;;;-3.41;100.00;96403.47;5065450;28;20461;-74
2023/01/27 04:09:43;;;;;;;21.60;12.77;;;;;;;-3.50;100.00;96377.22;5004356;28;20533;-74
2023/01/27 04:12:10;;;;;;;21.30;10.93;;;;;;;-3.52;100.00;96383.66;5023393;28;20503;-74
2023/01/27 04:14:40;;;;;;;18.33;11.40;;;;;;;-3.42;100.00;96409.66;5018607;28;20536;-74
2023/01/27 04:17:16;;;;;;;19.50;12.03;;;;;;;-3.65;100.00;96380.38;5015994;28;20455;-74
2023/01/27 04:19:43;;;;;;;19.97;10.83;;;;;;;-3.52;100.00;96388.81;5011302;28;20512;-74
2023/01/27 04:22:14;;;;;;;21.50;11.57;;;;;;;-3.34;100.00;96411.84;5012565;28;20486;-74
2023/01/27 04:24:41;;;;;;;14.27;10.30;;;;;;;-3.38;100.00;96411.53;5029131;28;20583;-74
2023/01/27 04:27:14;;;;;;;17.73;10.53;;;;;;;-3.47;100.00;96417.31;5038019;28;20576;-74
2023/01/27 04:29:41;;;;;;;16.20;9.93;;;;;;;-3.65;100.00;96374.41;5037316;28;20435;-74
2023/01/27 04:32:11;;;;;;;23.83;12.50;;;;;;;-3.48;100.00;96415.75;5032200;28;20433;-74
2023/01/27 04:34:38;;;;;;;21.23;13.10;;;;;;;-3.41;100.00;96414.59;5029420;28;20458;-74
2023/01/27 04:37:06;;;;;;;19.37;11.70;;;;;;;-3.83;100.00;96348.81;5040817;28;20445;-74
2023/01/27 04:39:33;;;;;;;20.10;11.50;;;;;;;-3.65;100.00;96393.28;5005907;28;20498;-74
2023/01/27 04:42:00;;;;;;;22.00;13.40;;;;;;;-3.55;100.00;96426.25;5076704;28;20544;-74
2023/01/27 04:44:28;;;;;;;18.93;10.57;;;;;;;-3.82;100.00;96373.63;5084246;28;20546;-74
2023/01/27 04:46:55;;;;;;;20.53;12.10;;;;;;;-3.71;100.00;96383.91;5083867;28;20482;-74
2023/01/27 04:49:21;;;;;;;18.77;10.47;;;;;;;-3.60;100.00;96403.72;5049637;28;20538;-74
2023/01/27 04:51:48;;;;;;;18.90;10.80;;;;;;;-3.52;100.00;96404.31;5062413;28;20949;-76
2023/01/27 04:54:15;;;;;;;14.10;10.50;;;;;;;-3.47;100.00;96425.06;5083120;28;20428;-74
2023/01/27 04:56:54;;;;;;;20.33;11.40;;;;;;;-3.49;100.00;96435.63;5072559;28;20488;-74
2023/01/27 04:59:21;;;;;;;17.57;10.57;;;;;;;-3.75;100.00;96403.44;5053497;28;20856;-74
2023/01/27 05:01:48;;;;;;;14.90;9.33;;;;;;;-3.71;100.00;96425.22;5083821;28;20451;-74
2023/01/27 05:04:14;;;;;;;16.77;10.23;;;;;;;-3.73;100.00;96413.56;5085886;28;20439;-74
2023/01/27 05:06:41;;;;;;;16.03;10.07;;;;;;;-3.52;100.00;96450.84;5080816;28;20495;-74
2023/01/27 05:09:08;;;;;;;16.00;11.30;;;;;;;-3.60;100.00;96445.03;5067164;28;20798;-74
2023/01/27 05:11:34;;;;;;;10.73;8.60;;;;;;;-3.75;100.00;96421.50;5083343;28;20433;-74
2023/01/27 05:14:01;;;;;;;15.30;9.10;;;;;;;-3.93;100.00;96391.53;5062576;28;20440;-74
2023/01/27 05:16:27;;;;;;;16.47;10.00;;;;;;;-3.83;100.00;96432.25;5083144;28;20465;-74
2023/01/27 05:18:55;;;;;;;15.17;10.90;;;;;;;-3.79;100.00;96440.31;5072654;28;20435;-74
2023/01/27 05:21:26;;;;;;;17.23;9.17;;;;;;;-3.52;100.00;96461.16;5062365;28;20483;-74
2023/01/27 05:23:53;;;;;;;18.20;11.60;;;;;;;-3.94;100.00;96426.09;5052767;28;20436;-74
2023/01/27 05:26:23;;;;;;;18.67;11.10;;;;;;;-3.72;100.00;96472.72;5068358;28;20671;-74
2023/01/27 05:28:51;;;;;;;13.67;10.07;;;;;;;-3.74;100.00;96463.63;5063855;28;20435;-74
2023/01/27 05:31:20;;;;;;;17.93;11.80;;;;;;;-3.77;100.00;96482.16;5059150;28;20448;-74
2023/01/27 05:33:49;;;;;;;14.20;9.93;;;;;;;-3.67;100.00;96483.16;5043922;28;21003;-74
2023/01/27 05:36:18;;;;;;;15.57;9.50;;;;;;;-3.72;100.00;96480.47;5079236;28;20915;-74
2023/01/27 05:38:45;;;;;;;15.43;10.50;;;;;;;-4.48;100.00;96350.81;5079711;28;20874;-74
2023/01/27 05:41:13;;;;;;;14.83;10.40;;;;;;;-3.65;100.00;96472.56;5072254;28;20545;-74
2023/01/27 05:43:42;;;;;;;18.43;10.40;;;;;;;-3.62;100.00;96485.03;5069063;28;20438;-74
2023/01/27 05:46:12;;;;;;;16.73;10.20;;;;;;;-3.79;100.00;96456.56;5052165;28;20512;-74
2023/01/27 05:48:45;;;;;;;16.30;11.30;;;;;;;-3.66;100.00;96489.88;5067775;28;20800;-74
2023/01/27 05:51:13;;;;;;;15.03;11.40;;;;;;;-3.73;100.00;96478.13;5055689;28;20523;-74
2023/01/27 05:53:41;;;;;;;19.63;10.00;;;;;;;-4.15;100.00;96416.41;5088740;28;20500;-74
2023/01/27 05:56:09;;;;;;;15.00;10.00;;;;;;;-3.69;100.00;96492.13;5079663;28;20421;-74
2023/01/27 05:58:37;;;;;;;14.80;8.80;;;;;;;-3.63;100.00;96489.41;5071894;28;20832;-74
2023/01/27 06:01:07;;;;;;;16.70;10.50;;;;;;;-3.63;100.00;96497.16;5081945;28;20478;-74
2023/01/27 06:03:34;;;;;;;15.10;9.63;;;;;;;-3.91;100.00;96454.03;5078590;28;20443;-74
2023/01/27 06:06:01;;;;;;;12.77;8.03;;;;;;;-3.98;100.00;96434.56;5071989;28;20439;-74
2023/01/27 06:08:28;;;;;;;14.37;10.40;;;;;;;-3.55;100.00;96488.25;5051704;28;20437;-75
2023/01/27 06:10:55;;;;;;;16.37;10.77;;;;;;;-3.59;100.00;96500.88;5062347;28;20432;-75
2023/01/27 06:13:23;;;;;;;17.87;10.40;;;;;;;-3.57;100.00;96492.88;5078575;28;20983;-73
2023/01/27 06:15:50;;;;;;;15.63;9.63;;;;;;;-3.73;100.00;96466.00;5068701;28;20841;-75
2023/01/27 06:18:18;;;;;;;15.17;10.80;;;;;;;-3.49;100.00;96495.06;5075523;28;20456;-74
2023/01/27 06:20:45;;;;;;;15.00;10.43;;;;;;;-3.57;100.00;96493.66;5069282;28;20469;-75
2023/01/27 06:23:14;;;;;;;14.60;9.00;;;;;;;-3.53;100.00;96490.59;5070014;28;20432;-74
2023/01/27 06:25:43;;;;;;;12.77;8.97;;;;;;;-3.60;100.00;96498.50;5055086;28;20918;-74
2023/01/27 06:28:10;;;;;;;14.03;9.00;;;;;;;-3.57;100.00;96490.28;5084989;28;21008;-74
2023/01/27 06:30:52;;;;;;;15.23;10.80;;;;;;;-3.68;100.00;96478.22;5058840;28;20436;-74
2023/01/27 06:33:19;;;;;;;13.30;9.37;;;;;;;-3.72;100.00;96470.16;5057385;28;20450;-74
2023/01/27 06:35:46;;;;;;;12.87;8.93;;;;;;;-3.76;100.00;96453.53;5039512;28;20464;-74
2023/01/27 06:38:14;;;;;;;12.30;8.27;;;;;;;-3.79;100.00;96454.00;5062172;28;20453;-74
2023/01/27 06:40:42;;;;;;;15.53;9.37;;;;;;;-4.17;100.00;96387.47;5084600;28;20992;-74
2023/01/27 06:43:12;;;;;;;19.30;9.20;;;;;;;-3.53;100.00;96493.19;5044947;28;21015;-74
2023/01/27 06:45:39;;;;;;;15.60;10.90;;;;;;;-3.90;100.00;96447.09;5073563;28;20407;-74
2023/01/27 06:48:07;;;;;;;17.57;11.13;;;;;;;-3.63;100.00;96504.13;5060424;28;20467;-74
2023/01/27 06:50:35;;;;;;;15.53;10.13;;;;;;;-4.27;100.00;96421.66;5068549;28;20444;-74
2023/01/27 06:53:06;;;;;;;15.10;10.00;;;;;;;-3.95;100.00;96462.50;5082449;28;20473;-74
2023/01/27 06:55:34;;;;;;;17.30;9.63;;;;;;;-3.88;100.00;96478.63;5042842;28;20817;-74
2023/01/27 06:58:01;;;;;;;20.60;11.27;;;;;;;-3.63;100.00;96517.81;5062782;28;20864;-74
2023/01/27 07:00:28;;;;;;;15.63;9.40;;;;;;;-3.61;100.00;96517.59;5075458;28;20431;-74
2023/01/27 07:02:55;;;;;;;17.90;9.87;;;;;;;-3.55;100.00;96531.41;5070752;28;20451;-72
2023/01/27 07:05:22;;;;;;;16.57;9.57;;;;;;;-3.59;100.00;96518.94;5065645;28;20822;-72
2023/01/27 07:07:49;;;;;;;15.07;9.13;;;;;;;-3.77;100.00;96508.78;5070610;28;20452;-73
2023/01/27 07:10:16;;;;;;;15.00;9.50;;;;;;;-3.83;100.00;96525.22;5080286;28;20430;-72
2023/01/27 07:12:43;;;;;;;14.10;8.80;;;;;;;-3.64;100.00;96536.91;5050347;28;20429;-72
2023/01/27 07:15:10;;;;;;;15.17;10.47;;;;;;;-3.60;100.00;96550.19;5065974;28;20792;-72
2023/01/27 07:17:37;;;;;;;18.07;10.53;;;;;;;-3.59;100.00;96544.78;5050238;28;20867;-72
2023/01/27 07:20:05;;;;;;;18.03;10.00;;;;;;;-3.75;100.00;96531.78;5049053;28;20536;-72
2023/01/27 07:22:32;;;;;;;14.87;10.13;;;;;;;-3.89;100.00;96500.28;5070138;28;20463;-73
2023/01/27 07:24:58;;;;;;;16.60;9.97;;;;;;;-3.61;100.00;96543.41;5060978;28;20873;-72
2023/01/27 07:27:25;;;;;;;16.87;11.03;;;;;;;-3.60;100.00;96532.88;5062850;28;20487;-72
2023/01/27 07:29:51;;;;;;;19.47;10.47;;;;;;;-3.85;100.00;96505.81;5083679;28;20425;-72
2023/01/27 07:32:18;;;;;;;13.77;8.50;;;;;;;-3.50;100.00;96546.97;5083264;28;20436;-72
2023/01/27 07:34:45;;;;;;;13.73;8.97;;;;;;;-3.66;100.00;96523.47;5076927;28;20435;-72
2023/01/27 07:37:12;;;;;;;14.80;9.77;;;;;;;-3.65;100.00;96532.00;5064037;28;20449;-72
2023/01/27 07:39:39;;;;;;;17.07;11.20;;;;;;;-3.73;100.00;96522.03;5057955;28;20520;-73
2023/01/27 07:42:07;;;;;;;18.77;9.80;;;;;;;-3.46;100.00;96555.84;5083624;28;20487;-72
2023/01/27 07:44:35;;;;;;;17.73;10.70;;;;;;;-3.59;100.00;96524.13;5064103;28;20436;-72
2023/01/27 07:47:02;;;;;;;14.40;10.40;;;;;;;-3.38;100.00;96555.47;5073017;28;20977;-72
2023/01/27 07:49:28;;;;;;;16.37;9.23;;;;;;;-3.52;100.00;96530.94;5051381;28;20437;-72
2023/01/27 07:51:55;;;;;;;13.70;8.67;;;;;;;-3.27;100.00;96570.16;5050677;28;20837;-72
2023/01/27 07:54:21;;;;;;;18.80;13.20;;;;;;;-3.37;100.00;96570.75;5078632;28;20427;-72
2023/01/27 07:56:48;;;;;;;15.73;10.10;;;;;;;-3.63;100.00;96533.31;5063265;28;20445;-72
2023/01/27 07:59:15;;;;;;;16.87;9.80;;;;;;;-3.52;100.00;96536.88;5070004;28;20442;-72
2023/01/27 08:01:42;;;;;;;15.17;9.43;;;;;;;-3.43;100.00;96539.88;5083385;28;20500;-72
2023/01/27 08:04:08;;;;;;;11.30;8.00;;;;;;;-5.14;100.00;96258.53;5081480;28;20535;-72
2023/01/27 08:06:38;;;;;;;12.17;8.03;;;;;;;-3.34;100.00;96541.06;5059730;28;20452;-72
2023/01/27 08:09:05;;;;;;;11.67;8.43;;;;;;;-3.28;100.00;96563.41;5081186;28;20426;-72
2023/01/27 08:11:33;;;;;;;10.90;7.40;;;;;;;-3.28;100.00;96566.78;5083220;28;20419;-72
2023/01/27 08:14:00;;;;;;;10.97;8.10;;;;;;;-3.35;100.00;96563.53;5062280;28;20443;-72
2023/01/27 08:16:26;;;;;;;13.87;8.70;;;;;;;-3.36;100.00;96548.25;5076336;28;20463;-72
2023/01/27 08:18:54;;;;;;;12.60;9.73;;;;;;;-3.42;100.00;96567.28;5060359;28;20437;-72
2023/01/27 08:21:21;;;;;;;16.17;9.03;;;;;;;-3.61;100.00;96528.69;5055317;28;20546;-72
2023/01/27 08:23:47;;;;;;;10.70;8.73;;;;;;;-3.18;100.00;96561.00;5080297;28;20428;-72
2023/01/27 08:26:14;;;;;;;14.30;9.13;;;;;;;-3.17;100.00;96564.38;5072574;28;20470;-72
2023/01/27 08:28:41;;;;;;;12.70;9.10;;;;;;;-3.51;100.00;96532.50;5063385;28;20432;-72
2023/01/27 08:31:13;;;;;;;13.50;11.10;;;;;;;-3.37;100.00;96529.38;5080483;28;20804;-72
2023/01/27 08:33:42;;;;;;;12.67;8.10;;;;;;;-3.09;100.00;96576.91;5073934;28;20533;-72
2023/01/27 08:36:15;;;;;;;11.17;8.20;;;;;;;-3.15;100.00;96560.53;5059437;28;20912;-72
2023/01/27 08:38:43;;;;;;;13.33;8.23;;;;;;;-2.93;100.00;96578.75;5065861;28;20442;-72
2023/01/27 08:41:13;;;;;;;14.90;8.90;;;;;;;-3.13;100.00;96542.19;5073746;28;20555;-73
2023/01/27 08:43:40;;;;;;;15.60;9.00;;;;;;;-2.87;100.00;96570.03;5087989;28;20868;-72
2023/01/27 08:46:08;;;;;;;14.00;8.20;;;;;;;-2.67;100.00;96572.19;5065106;28;20482;-72
2023/01/27 08:48:36;;;;;;;13.97;9.60;;;;;;;-2.86;100.00;96563.06;5074041;28;20429;-72
2023/01/27 08:51:05;;;;;;;24.03;12.23;;;;;;;-2.98;100.00;96548.41;5076064;28;20459;-73
2023/01/27 08:53:33;;;;;;;17.13;8.83;;;;;;;-2.77;100.00;96577.19;5062580;28;20461;-73
2023/01/27 08:56:04;;;;;;;13.37;9.17;;;;;;;-2.81;100.00;96571.69;5084547;28;20433;-73
2023/01/27 08:58:32;;;;;;;13.43;9.50;;;;;;;-3.02;100.00;96549.09;5065152;28;20479;-72
2023/01/27 09:01:05;;;;;;;16.97;8.90;;;;;;;-2.88;100.00;96575.44;5087297;28;20915;-73
2023/01/27 09:03:32;;;;;;;11.47;8.40;;;;;;;-3.12;100.00;96541.97;5078137;28;20427;-73
2023/01/27 09:06:00;;;;;;;15.47;8.40;;;;;;;-2.75;100.00;96575.94;5084687;28;20520;-73
2023/01/27 09:08:27;;;;;;;13.10;8.20;;;;;;;-2.89;100.00;96581.66;5079493;28;20440;-73
2023/01/27 09:10:54;;;;;;;12.60;8.90;;;;;;;-2.88;100.00;96565.88;5067278;28;20494;-73
2023/01/27 09:13:21;;;;;;;16.07;9.10;;;;;;;-3.16;100.00;96535.69;5055453;28;20850;-73
2023/01/27 09:15:51;;;;;;;10.00;7.60;;;;;;;-2.78;100.00;96598.91;5074895;28;20843;-72
2023/01/27 09:18:18;;;;;;;11.77;8.80;;;;;;;-2.81;100.00;96592.38;5074977;28;20955;-73
2023/01/27 09:20:45;;;;;;;11.30;7.53;;;;;;;-2.73;100.00;96593.78;5056097;28;20435;-73
2023/01/27 09:23:12;;;;;;;12.23;8.70;;;;;;;-3.00;100.00;96555.59;5082776;28;20547;-73
2023/01/27 09:25:38;;;;;;;12.73;7.80;;;;;;;-2.57;100.00;96608.53;5076713;28;20476;-73
2023/01/27 09:28:05;;;;;;;16.43;9.07;;;;;;;-2.95;100.00;96567.03;5059483;28;20448;-73
2023/01/27 09:30:32;;;;;;;12.60;8.30;;;;;;;-2.78;100.00;96619.59;5066904;28;20460;-73
2023/01/27 09:33:00;;;;;;;13.43;7.53;;;;;;;-2.98;100.00;96576.84;5059044;28;20439;-73
2023/01/27 09:35:40;;;;;;;12.23;9.17;;;;;;;-2.86;100.00;96594.09;5071582;28;20810;-73
2023/01/27 09:38:08;;;;;;;11.13;7.27;;;;;;;-2.81;100.00;96587.19;5066165;28;20484;-73
2023/01/27 09:41:02;;;;;;;15.57;9.07;;;;;;;-2.98;100.00;96576.84;5077232;28;20420;-73
2023/01/27 09:43:39;;;;;;;11.03;8.50;;;;;;;-2.80;100.00;96598.34;5082560;28;20454;-73
2023/01/27 09:46:27;;;;;;;16.63;7.90;;;;;;;-2.74;100.00;96600.00;5052628;28;20471;-73
2023/01/27 09:49:00;;;;;;;9.97;7.03;;;;;;;-2.63;100.00;96619.06;5077772;28;20498;-72
2023/01/27 09:51:53;;;;;;;9.30;6.07;;;;;;;-2.80;100.00;96616.47;5061183;28;20420;-73
2023/01/27 09:54:52;;;;;;;10.80;7.10;;;;;;;-2.86;100.00;96607.81;5073698;28;20469;-72
2023/01/27 09:57:28;;;;;;;11.63;6.87;;;;;;;-2.84;100.00;96605.78;5069100;28;20530;-72
2023/01/27 10:00:07;;;;;;;13.40;7.50;;;;;;;-2.76;100.00;96609.78;5068574;28;20786;-73
2023/01/27 10:03:07;;;;;;;14.50;8.93;;;;;;;-3.00;100.00;96585.84;5059865;28;20472;-73
2023/01/27 10:05:42;;;;;;;10.90;6.33;;;;;;;-2.77;100.00;96610.81;5065363;28;20805;-73
2023/01/27 10:08:38;;;;;;;12.77;6.60;;;;;;;-2.53;100.00;96621.81;5063537;28;20495;-73
2023/01/27 10:11:11;;;;;;;9.60;7.17;;;;;;;-2.58;100.00;96621.72;5070869;28;20974;-73
2023/01/27 10:14:06;;;;;;;6.77;4.30;;;;;;;-2.64;100.00;96617.50;5077592;28;20427;-73
2023/01/27 10:16:35;;;;;;;7.53;5.53;;;;;;;-2.49;100.00;96610.75;5077174;28;20460;-72
2023/01/27 10:19:21;;;;;;;6.77;4.93;;;;;;;-2.38;100.00;96612.47;5079612;28;20893;-73
2023/01/27 10:22:01;;;;;;;4.63;4.20;;;;;;;-2.50;100.00;96609.19;5064568;28;20447;-73
2023/01/27 10:24:58;;;;;;;10.45;7.13;;;;;;;-2.43;100.00;96604.59;5003345;28;1187417;-73
2023/01/27 10:27:28;;;;;;;7.90;5.53;;;;;;;-2.26;100.00;96614.19;5077870;28;20974;-73
2023/01/27 10:30:21;;;;;;;8.17;6.20;;;;;;;-2.26;100.00;96627.91;5073191;28;20845;-73
2023/01/27 10:32:52;;;;;;;9.60;6.60;;;;;;;-2.31;100.00;96630.41;5071467;28;20441;-73
2023/01/27 10:35:30;;;;;;;9.43;7.00;;;;;;;-2.34;100.00;96620.53;5083740;28;21003;-73
2023/01/27 10:38:17;;;;;;;12.00;7.60;;;;;;;-2.38;100.00;96630.59;5048939;28;20461;-73
2023/01/27 10:41:03;;;;;;;9.30;7.33;;;;;;;-2.22;100.00;96625.63;5074643;28;20516;-73
2023/01/27 10:44:03;;;;;;;7.63;5.57;;;;;;;-2.22;100.00;96617.88;5085154;28;20600;-73
2023/01/27 10:47:05;;;;;;;9.63;5.67;;;;;;;-2.30;100.00;96613.06;5072212;28;20497;-73
2023/01/27 10:49:40;;;;;;;7.40;5.50;;;;;;;-2.59;100.00;96589.09;4999371;28;20811;-73
2023/01/27 10:52:22;;;;;;;7.00;5.90;;;;;;;-2.33;100.00;96618.72;5067669;28;20775;-73
2023/01/27 10:55:15;;;;;;;12.90;5.33;;;;;;;-2.47;100.00;96566.50;5066484;28;20461;-72
2023/01/27 10:58:08;;;;;;;8.37;6.50;;;;;;;-2.34;100.00;96599.81;5059848;28;20811;-72
2023/01/27 11:00:46;;;;;;;6.83;5.00;;;;;;;-2.26;100.00;96614.19;5071346;28;20489;-72
2023/01/27 11:03:57;;;;;;;6.87;4.77;;;;;;;-2.19;100.00;96614.78;5089004;28;20463;-72
2023/01/27 11:06:31;;;;;;;10.70;6.80;;;;;;;-2.27;100.00;96587.50;5060817;28;20483;-72
2023/01/27 11:09:24;;;;;;;8.17;5.50;;;;;;;-2.06;100.00;96608.50;5074093;28;20949;-72
2023/01/27 11:11:52;;;;;;;8.03;5.80;;;;;;;-2.08;100.00;96606.16;5048140;28;20445;-72
2023/01/27 11:14:39;;;;;;;6.73;6.13;;;;;;;-2.16;100.00;96603.94;5058352;28;20442;-72
2023/01/27 11:17:16;;;;;;;11.10;6.57;;;;;;;-2.14;100.00;96596.72;5058582;28;20476;-72
2023/01/27 11:19:46;;;;;;;7.83;5.63;;;;;;;-2.18;100.00;96595.66;5071836;28;20489;-72
2023/01/27 11:22:27;;;;;;;10.90;6.97;;;;;;;-2.23;100.00;96611.91;5080672;28;20505;-72
2023/01/27 11:25:12;;;;;;;8.30;5.80;;;;;;;-2.33;100.00;96605.78;5071266;28;20459;-72
2023/01/27 11:28:04;;;;;;;9.37;6.27;;;;;;;-2.21;100.00;96603.91;5070153;28;20886;-72
2023/01/27 11:30:45;;;;;;;7.97;5.60;;;;;;;-2.34;100.00;96606.81;5083481;28;20502;-72
2023/01/27 11:33:33;;;;;;;8.00;5.03;;;;;;;-2.41;100.00;96587.03;5057276;28;20526;-72
2023/01/27 11:36:00;;;;;;;8.53;4.83;;;;;;;-2.34;100.00;96596.47;5070217;28;20531;-72
2023/01/27 11:38:26;;;;;;;7.50;5.63;;;;;;;-2.46;100.00;96568.84;5080553;28;20935;-72
2023/01/27 11:40:53;;;;;;;10.10;6.60;;;;;;;-2.06;100.00;96613.69;5074259;28;20528;-73
2023/01/27 11:43:24;;;;;;;7.63;6.13;;;;;;;-2.13;100.00;96595.72;5080513;28;20541;-73
2023/01/27 11:45:58;;;;;;;10.40;6.13;;;;;;;-2.03;100.00;96603.63;5076622;28;20428;-73
2023/01/27 11:48:39;;;;;;;6.10;5.50;;;;;;;-2.38;100.00;96560.69;5077968;28;20540;-73
2023/01/27 11:51:39;;;;;;;6.80;5.00;;;;;;;-1.98;100.00;96603.69;5064492;28;20418;-73
2023/01/27 11:54:17;;;;;;;5.60;4.03;;;;;;;-1.97;100.00;96602.69;5054833;28;20434;-73
2023/01/27 11:56:47;;;;;;;6.50;5.47;;;;;;;-1.85;100.00;96605.94;5057007;28;20459;-73
2023/01/27 11:59:20;;;;;;;8.93;6.60;;;;;;;-2.23;100.00;96543.78;5078275;28;20460;-72
2023/01/27 12:01:54;;;;;;;6.10;4.83;;;;;;;-1.83;100.00;96590.16;5057480;28;20429;-73
2023/01/27 12:04:38;;;;;;;8.57;6.30;;;;;;;-1.77;100.00;96588.41;5073443;28;20448;-73
2023/01/27 12:07:13;;;;;;;9.10;5.70;;;;;;;-2.30;100.00;96541.38;5066590;28;20542;-73